Relevés horaires Matro (Suisse)


Relevés horaires à Matro - Jeudi 21 Juill. 2022
Heure UTC1 Température [°C] Vent [km/h] Hum. [%] Pres.4 [hPa] Visi. [Km] Nébu. [octa] Préc.5 [mm] Cond.
2m. Res. Ros. Dir.2 Vit. Moy. Raf.3
23:00 15.1 14.6 8.2 SE 11.1 -- 13.0 63 850(0.2/3h) -- -- -- --
22:00 15.1 14.8 8.4 SE 9.3 -- 16.7 64 850(0.5/3h) -- -- -- --
21:00 15.3 14.5 8.3 SSE 14.8 -- 24.1 63 850(0.6/3h) -- -- -- --
20:00 15.4 14.6 8.9 SSE 14.8 -- 24.1 65 850(0.5/3h) -- -- -- --
19:00 15.8 15.4 9.1 SSE 11.1 -- 20.4 64 850(0.1/3h) -- -- -- --
18:00 16.2 15.6 9.1 S 14.8 -- 37.0 63 850(-0.2/3h) -- -- -- --
17:00 16.8 16.1 8.9 S 18.5 -- 33.3 60 850(-0.3/3h) -- -- -- --
16:00 17.1 16.2 8.5 SSE 22.2 -- 33.3 57 850(-0.3/3h) -- -- -- --
15:00 16.9 15.9 8.0 S 24.1 -- 37.0 56 850(-0.3/3h) -- -- -- --
14:00 17.3 16.6 8.2 S 20.4 -- 35.2 55 850(-0.5/3h) -- -- -- --
13:00 17.2 16.3 9.4 S 22.2 -- 35.2 60 850(-0.3/3h) -- -- -- --
12:00 16.2 15.3 8.3 S 18.5 -- 38.9 59 850(0.0/3h) -- -- -- --
11:00 16.4 15.4 9.2 SSE 20.4 -- 29.6 62 850(0.3/3h) -- -- -- --
10:00 15.3 14 8.4 SSE 20.4 -- 27.8 63 850(0.3/3h) -- -- -- --
09:00 14.4 13.8 9.1 S 11.1 -- 24.1 70 850(0.4/3h) -- -- -- --
08:00 14.0 13 8.1 SSE 13.0 -- 18.5 68 850(0.3/3h) -- -- -- --
07:00 13.7 13.2 7.6 SE 9.3 -- 18.5 67 850(0.4/3h) -- -- -- --
06:00 13.9 12.9 7.7 SE 13.0 -- 25.9 66 850(0.0/3h) -- -- -- --
05:00 13.3 12.2 7.5 SE 13.0 -- 20.4 68 850(-0.3/3h) -- -- -- --
04:00 13.4 11.9 7.9 SSE 16.7 -- 20.4 69 850(-0.8/3h) -- -- -- --
03:00 13.4 12.3 8.7 SSE 13.0 -- 25.9 73 850(-0.6/3h) -- -- -- --
02:00 13.4 11.9 9.5 SSE 16.7 -- 24.1 77 850(-0.9/3h) -- -- -- --
01:00 13.4 11.6 9.7 SE 20.4 -- 24.1 78 850(-0.5/3h) -- -- -- --
00:00 13.6 11.8 10.2 SSE 22.2 -- 40.7 80 850(-0.5/3h) -- -- -- --

1 Coordinated Universal Time. Actuellement il est 15:00 locale et 13:00 UTC.

2 Le vent souffle depuis la direction indiquée vers la direction oposée.

3 Les rafales max. sont disponible 40 min après l'heure du relevé.

4 Pour les stations d'altitude (plus de 600m) le géopotentiel du niveau le plus proche de la pression obligatoire est indiqué.

5 Les stations disposant d'un diffuseur peuvent indiquer "trace". Cela signifie que des précipitations ont touchés le sol mais que la quantité est inférieure à 0.1 mm.

Copyright

Les données affichées sur cette page sont la propriété exclusive de Météo Suisse.

Récapitulatif de la journée
Température [°C] Vent [km/h] Ensoleillement4 [h] Precipitations totale5 [mm] Pression [Hpa]
Min1 Max.2 Moy.3 Max. Min Max.
13.3 17.8 0 40.7 12 h 30 min 0 850.0 850.0

1 Température minimale relevée entre 18:00 UTC la veille et 18:00 UTC le jour donné.

2 Température maximale relevée entre 06:00 UTC le jour donné et 06:00 UTC le lendemain.

3 Vent moyen de la journée basé sur les relevés horaires.

4 Ensoleillement en heures relevé entre 06:00 UTC la veille et 06:00 UTC le jour donné.

5 Précipitations totales tombées entre 06:00 UTC la jour donné et 06:00 UTC le lendemain.

Graphiques horaires